createdAt,value
2018-09-10T00:00:26.950Z,20.14
2018-09-10T00:01:31.126Z,20.15
2018-09-10T00:02:36.153Z,20.16
2018-09-10T00:03:40.294Z,20.16
2018-09-10T00:04:44.499Z,20.18
2018-09-10T00:05:48.682Z,20.19
2018-09-10T00:06:52.922Z,20.20
2018-09-10T00:07:57.098Z,20.21
2018-09-10T00:09:01.397Z,20.22
2018-09-10T00:10:05.621Z,20.23
2018-09-10T00:11:09.997Z,20.23
2018-09-10T00:12:14.180Z,20.26
2018-09-10T00:13:18.403Z,20.26
2018-09-10T00:14:22.552Z,20.28
2018-09-10T00:15:26.914Z,20.29
2018-09-10T00:16:31.038Z,20.30
2018-09-10T00:17:35.224Z,20.31
2018-09-10T00:18:39.398Z,20.33
2018-09-10T00:19:43.539Z,20.32
2018-09-10T00:20:47.679Z,20.34
2018-09-10T00:21:51.851Z,20.35
2018-09-10T00:22:56.057Z,20.35
2018-09-10T00:24:00.336Z,20.35
2018-09-10T00:25:04.615Z,20.35
2018-09-10T00:26:08.750Z,20.34
2018-09-10T00:27:12.881Z,20.32
2018-09-10T00:28:20.693Z,20.31
2018-09-10T00:29:26.151Z,20.28
2018-09-10T00:30:33.677Z,20.26
2018-09-10T00:31:37.824Z,20.23
2018-09-10T00:32:42.082Z,20.21
2018-09-10T00:33:46.557Z,20.18
2018-09-10T00:34:50.723Z,20.17
2018-09-10T00:35:54.943Z,20.15
2018-09-10T00:36:59.350Z,20.13
2018-09-10T00:38:03.511Z,20.12
2018-09-10T00:39:10.867Z,20.11
2018-09-10T00:40:15.383Z,20.10
2018-09-10T00:41:19.540Z,20.09
2018-09-10T00:42:23.690Z,20.08
2018-09-10T00:43:27.826Z,20.07
2018-09-10T00:44:32.190Z,20.05
2018-09-10T00:45:36.345Z,20.05
2018-09-10T00:46:40.518Z,20.05
2018-09-10T00:47:44.980Z,20.04
2018-09-10T00:48:49.097Z,20.04
2018-09-10T00:49:53.287Z,20.03
2018-09-10T00:50:57.816Z,20.01
2018-09-10T00:52:01.977Z,20.01
2018-09-10T00:53:06.119Z,19.99
2018-09-10T00:54:12.634Z,20.00
2018-09-10T00:55:16.848Z,19.99
2018-09-10T00:56:21.041Z,19.99
2018-09-10T00:57:25.222Z,20.00
2018-09-10T00:58:29.740Z,19.99
2018-09-10T00:59:33.904Z,20.00
2018-09-10T01:00:38.173Z,20.02
2018-09-10T01:01:42.686Z,20.03
2018-09-10T01:02:46.835Z,20.05
2018-09-10T01:03:51.034Z,20.06
2018-09-10T01:04:55.213Z,20.08
2018-09-10T01:05:59.506Z,20.10
2018-09-10T01:07:03.673Z,20.10
2018-09-10T01:08:07.905Z,20.13
2018-09-10T01:09:12.073Z,20.15
2018-09-10T01:10:16.370Z,20.15
2018-09-10T01:11:20.580Z,20.15
2018-09-10T01:12:24.841Z,20.17
2018-09-10T01:13:28.973Z,20.17
2018-09-10T01:14:33.286Z,20.17
2018-09-10T01:15:37.474Z,20.17
2018-09-10T01:16:41.671Z,20.16
2018-09-10T01:17:45.840Z,20.16
2018-09-10T01:18:50.158Z,20.16
2018-09-10T01:19:54.751Z,20.14
2018-09-10T01:20:59.094Z,20.15
2018-09-10T01:22:03.311Z,20.14
2018-09-10T01:23:07.434Z,20.13
2018-09-10T01:24:11.631Z,20.12
2018-09-10T01:25:15.850Z,20.11
2018-09-10T01:26:20.035Z,20.10
2018-09-10T01:27:24.288Z,20.08
2018-09-10T01:28:28.438Z,20.05
2018-09-10T01:29:32.648Z,20.02
2018-09-10T01:30:36.830Z,20.01
2018-09-10T01:31:41.329Z,19.99
2018-09-10T01:32:47.695Z,19.97
2018-09-10T01:33:57.134Z,19.96
2018-09-10T01:35:06.561Z,19.94
2018-09-10T01:36:10.727Z,19.93
2018-09-10T01:37:14.988Z,19.91
2018-09-10T01:38:19.149Z,19.88
2018-09-10T01:39:23.334Z,19.86
2018-09-10T01:40:27.500Z,19.84
2018-09-10T01:41:31.689Z,19.80
2018-09-10T01:42:35.876Z,19.80
2018-09-10T01:43:40.107Z,19.79
2018-09-10T01:44:44.253Z,19.79
2018-09-10T01:45:51.096Z,19.78
2018-09-10T01:46:55.236Z,19.76
2018-09-10T01:47:59.397Z,19.75
2018-09-10T01:49:03.629Z,19.74
2018-09-10T01:50:07.852Z,19.74
2018-09-10T01:51:12.043Z,19.71
2018-09-10T01:52:16.232Z,19.71
2018-09-10T01:53:20.506Z,19.69
2018-09-10T01:54:24.813Z,19.68
2018-09-10T01:55:28.982Z,19.66
2018-09-10T01:56:33.224Z,19.64
2018-09-10T01:57:37.350Z,19.63
2018-09-10T01:58:41.700Z,19.62
2018-09-10T01:59:45.886Z,19.63
2018-09-10T02:00:50.555Z,19.60
2018-09-10T02:01:54.703Z,19.60
2018-09-10T02:02:58.868Z,19.59
2018-09-10T02:04:03.052Z,19.59
2018-09-10T02:05:07.580Z,19.56
2018-09-10T02:06:11.880Z,19.57
2018-09-10T02:07:16.042Z,19.55
2018-09-10T02:08:20.191Z,19.54
2018-09-10T02:09:24.812Z,19.53
2018-09-10T02:10:29.032Z,19.53
2018-09-10T02:11:33.202Z,19.51
2018-09-10T02:12:37.443Z,19.51
2018-09-10T02:13:41.806Z,19.50
2018-09-10T02:14:45.967Z,19.50
2018-09-10T02:15:51.963Z,19.48
2018-09-10T02:16:56.154Z,19.48
2018-09-10T02:18:00.400Z,19.47
2018-09-10T02:19:04.602Z,19.45
2018-09-10T02:20:08.803Z,19.43
2018-09-10T02:21:13.042Z,19.44
2018-09-10T02:22:17.259Z,19.42
2018-09-10T02:23:22.346Z,19.41
2018-09-10T02:24:26.681Z,19.41
2018-09-10T02:25:30.960Z,19.41
2018-09-10T02:26:35.218Z,19.42
2018-09-10T02:27:39.509Z,19.41
2018-09-10T02:28:43.679Z,19.40
2018-09-10T02:29:47.839Z,19.42
2018-09-10T02:30:51.997Z,19.42
2018-09-10T02:31:56.206Z,19.42
2018-09-10T02:33:00.499Z,19.42
2018-09-10T02:34:04.704Z,19.43
2018-09-10T02:35:09.001Z,19.44
2018-09-10T02:36:13.164Z,19.43
2018-09-10T02:37:17.626Z,19.44
2018-09-10T02:38:21.807Z,19.44
2018-09-10T02:39:26.004Z,19.43
2018-09-10T02:40:30.447Z,19.42
2018-09-10T02:41:39.831Z,19.43
2018-09-10T02:42:44.036Z,19.44
2018-09-10T02:43:48.310Z,19.44
2018-09-10T02:44:52.491Z,19.44
2018-09-10T02:45:56.742Z,19.45
2018-09-10T02:47:00.901Z,19.46
2018-09-10T02:48:05.311Z,19.45
2018-09-10T02:49:09.494Z,19.44
2018-09-10T02:50:13.698Z,19.44
2018-09-10T02:51:17.874Z,19.43
2018-09-10T02:52:22.253Z,19.43
2018-09-10T02:53:26.919Z,19.43
2018-09-10T02:54:31.176Z,19.42
2018-09-10T02:55:35.333Z,19.41
2018-09-10T02:56:39.483Z,19.42
2018-09-10T02:57:43.808Z,19.42
2018-09-10T02:58:48.019Z,19.42
2018-09-10T02:59:52.180Z,19.41
2018-09-10T03:00:56.385Z,19.41
2018-09-10T03:02:00.534Z,19.42
2018-09-10T03:03:04.743Z,19.44
2018-09-10T03:04:08.943Z,19.43
2018-09-10T03:05:13.131Z,19.44
2018-09-10T03:06:17.555Z,19.42
2018-09-10T03:07:21.746Z,19.42
2018-09-10T03:08:25.874Z,19.44
2018-09-10T03:09:30.232Z,19.43
2018-09-10T03:10:34.724Z,19.43
2018-09-10T03:11:38.866Z,19.44
2018-09-10T03:12:43.030Z,19.47
2018-09-10T03:13:47.549Z,19.48
2018-09-10T03:14:51.770Z,19.50
2018-09-10T03:15:55.975Z,19.51
2018-09-10T03:17:00.115Z,19.52
2018-09-10T03:18:04.413Z,19.54
2018-09-10T03:19:08.571Z,19.56
2018-09-10T03:20:12.801Z,19.58
2018-09-10T03:21:17.087Z,19.58
2018-09-10T03:22:21.241Z,19.59
2018-09-10T03:23:25.397Z,19.60
2018-09-10T03:24:29.783Z,19.60
2018-09-10T03:25:33.971Z,19.59
2018-09-10T03:26:38.138Z,19.59
2018-09-10T03:27:42.266Z,19.59
2018-09-10T03:28:46.420Z,19.58
2018-09-10T03:29:50.582Z,19.57
2018-09-10T03:30:54.813Z,19.58
2018-09-10T03:31:58.959Z,19.58
2018-09-10T03:33:03.181Z,19.59
2018-09-10T03:34:07.358Z,19.58
2018-09-10T03:35:11.546Z,19.58
2018-09-10T03:36:15.713Z,19.57
2018-09-10T03:37:20.030Z,19.55
2018-09-10T03:38:25.227Z,19.54
2018-09-10T03:39:29.818Z,19.53
2018-09-10T03:40:34.104Z,19.54
2018-09-10T03:41:38.294Z,19.51
2018-09-10T03:42:42.537Z,19.52
2018-09-10T03:43:46.693Z,19.50
2018-09-10T03:44:50.948Z,19.50
2018-09-10T03:45:55.125Z,19.49
2018-09-10T03:46:59.360Z,19.51
2018-09-10T03:48:03.526Z,19.49
2018-09-10T03:49:07.769Z,19.49
2018-09-10T03:50:11.952Z,19.49
2018-09-10T03:51:16.162Z,19.47
2018-09-10T03:52:20.475Z,19.47
2018-09-10T03:53:24.648Z,19.47
2018-09-10T03:54:28.796Z,19.46
2018-09-10T03:55:33.007Z,19.48
2018-09-10T03:56:37.202Z,19.49
2018-09-10T03:57:41.363Z,19.51
2018-09-10T03:58:45.751Z,19.51
2018-09-10T03:59:50.022Z,19.51
2018-09-10T04:00:54.155Z,19.51
2018-09-10T04:01:58.637Z,19.52
2018-09-10T04:03:02.789Z,19.53
2018-09-10T04:04:07.149Z,19.56
2018-09-10T04:05:11.355Z,19.56
2018-09-10T04:06:15.723Z,19.58
2018-09-10T04:07:19.866Z,19.59
2018-09-10T04:08:23.997Z,19.62
2018-09-10T04:09:28.175Z,19.62
2018-09-10T04:10:32.349Z,19.62
2018-09-10T04:11:36.560Z,19.63
2018-09-10T04:12:40.895Z,19.64
2018-09-10T04:13:45.065Z,19.64
2018-09-10T04:14:49.256Z,19.63
2018-09-10T04:15:53.610Z,19.63
2018-09-10T04:16:57.738Z,19.63
2018-09-10T04:18:01.894Z,19.63
2018-09-10T04:19:06.214Z,19.63
2018-09-10T04:20:11.250Z,19.64
2018-09-10T04:21:15.450Z,19.63
2018-09-10T04:22:19.661Z,19.64
2018-09-10T04:23:23.810Z,19.63
2018-09-10T04:24:28.015Z,19.64
2018-09-10T04:25:32.302Z,19.65
2018-09-10T04:26:36.495Z,19.64
2018-09-10T04:27:40.633Z,19.65
2018-09-10T04:28:44.891Z,19.66
2018-09-10T04:29:49.088Z,19.65
2018-09-10T04:30:53.264Z,19.65
2018-09-10T04:31:57.426Z,19.63
2018-09-10T04:33:01.918Z,19.62
2018-09-10T04:34:06.088Z,19.60
2018-09-10T04:35:10.714Z,19.59
2018-09-10T04:36:14.995Z,19.58
2018-09-10T04:37:19.867Z,19.55
2018-09-10T04:38:24.070Z,19.55
2018-09-10T04:39:29.427Z,19.53
2018-09-10T04:40:33.624Z,19.52
2018-09-10T04:41:42.557Z,19.52
2018-09-10T04:42:46.832Z,19.52
2018-09-10T04:43:50.979Z,19.52
2018-09-10T04:44:55.168Z,19.51
2018-09-10T04:46:00.160Z,19.50
2018-09-10T04:47:04.297Z,19.50
2018-09-10T04:48:10.210Z,19.49
2018-09-10T04:49:14.724Z,19.49
2018-09-10T04:50:19.234Z,19.48
2018-09-10T04:51:23.501Z,19.48
2018-09-10T04:52:27.656Z,19.48
2018-09-10T04:53:33.512Z,19.48
2018-09-10T04:54:37.693Z,19.47
2018-09-10T04:55:41.863Z,19.45
2018-09-10T04:56:46.029Z,19.45
2018-09-10T04:57:50.253Z,19.45
2018-09-10T04:58:54.446Z,19.43
2018-09-10T04:59:58.594Z,19.43
2018-09-10T05:01:03.000Z,19.42
2018-09-10T05:02:07.401Z,19.40
2018-09-10T05:03:11.595Z,19.40
2018-09-10T05:04:15.762Z,19.40
2018-09-10T05:05:20.117Z,19.39
2018-09-10T05:06:24.344Z,19.38
2018-09-10T05:07:28.519Z,19.38
2018-09-10T05:08:32.738Z,19.38
2018-09-10T05:09:36.969Z,19.37
2018-09-10T05:10:41.283Z,19.36
2018-09-10T05:11:45.422Z,19.36
2018-09-10T05:12:49.669Z,19.35
2018-09-10T05:13:53.805Z,19.34
2018-09-10T05:14:57.991Z,19.36
2018-09-10T05:16:02.151Z,19.33
2018-09-10T05:17:06.282Z,19.32
2018-09-10T05:18:10.456Z,19.33
2018-09-10T05:19:14.638Z,19.33
2018-09-10T05:20:18.794Z,19.34
2018-09-10T05:21:23.004Z,19.34
2018-09-10T05:22:27.127Z,19.34
2018-09-10T05:23:31.547Z,19.33
2018-09-10T05:24:35.984Z,19.33
2018-09-10T05:25:40.252Z,19.34
2018-09-10T05:26:44.466Z,19.35
2018-09-10T05:27:48.666Z,19.36
2018-09-10T05:28:52.891Z,19.36
2018-09-10T05:29:57.053Z,19.37
2018-09-10T05:31:01.229Z,19.38
2018-09-10T05:32:05.456Z,19.39
2018-09-10T05:33:09.611Z,19.39
2018-09-10T05:34:13.991Z,19.40
2018-09-10T05:35:18.146Z,19.39
2018-09-10T05:36:22.410Z,19.39
2018-09-10T05:37:26.772Z,19.38
2018-09-10T05:38:31.082Z,19.37
2018-09-10T05:39:35.309Z,19.36
2018-09-10T05:40:39.540Z,19.36
2018-09-10T05:41:43.805Z,19.35
2018-09-10T05:42:47.938Z,19.37
2018-09-10T05:43:52.163Z,19.37
2018-09-10T05:44:56.348Z,19.38
2018-09-10T05:46:00.499Z,19.37
2018-09-10T05:47:04.677Z,19.39
2018-09-10T05:48:09.038Z,19.40
2018-09-10T05:49:13.311Z,19.41
2018-09-10T05:50:17.527Z,19.42
2018-09-10T05:51:21.896Z,19.43
2018-09-10T05:52:26.034Z,19.42
2018-09-10T05:53:30.182Z,19.42
2018-09-10T05:54:34.340Z,19.42
2018-09-10T05:55:38.740Z,19.42
2018-09-10T05:56:42.856Z,19.41
2018-09-10T05:57:47.187Z,19.41
2018-09-10T05:58:51.321Z,19.41
2018-09-10T05:59:55.652Z,19.42
2018-09-10T06:00:59.993Z,19.43
2018-09-10T06:02:04.190Z,19.43
2018-09-10T06:03:08.352Z,19.44
2018-09-10T06:04:12.539Z,19.44
2018-09-10T06:05:16.740Z,19.45
2018-09-10T06:06:20.934Z,19.47
2018-09-10T06:07:25.358Z,19.48
2018-09-10T06:08:29.899Z,19.49
2018-09-10T06:09:34.031Z,19.51
2018-09-10T06:10:38.318Z,19.52
2018-09-10T06:11:42.717Z,19.54
2018-09-10T06:12:47.638Z,19.54
2018-09-10T06:13:51.764Z,19.56
2018-09-10T06:14:56.340Z,19.57
2018-09-10T06:16:00.569Z,19.58
2018-09-10T06:17:04.975Z,19.58
2018-09-10T06:18:09.126Z,19.59
2018-09-10T06:19:16.503Z,19.59
2018-09-10T06:20:20.852Z,19.59
2018-09-10T06:21:25.019Z,19.60
2018-09-10T06:22:29.365Z,19.62
2018-09-10T06:23:33.608Z,19.63
2018-09-10T06:24:37.762Z,19.66
2018-09-10T06:25:41.990Z,19.67
2018-09-10T06:26:46.230Z,19.68
2018-09-10T06:27:50.630Z,19.68
2018-09-10T06:28:55.183Z,19.67
2018-09-10T06:29:59.454Z,19.69
2018-09-10T06:31:03.625Z,19.67
2018-09-10T06:32:07.826Z,19.67
2018-09-10T06:33:12.040Z,19.67
2018-09-10T06:34:16.596Z,19.68
2018-09-10T06:35:20.633Z,19.68
2018-09-10T06:36:25.438Z,19.71
2018-09-10T06:37:30.080Z,19.74
2018-09-10T06:38:34.500Z,19.75
2018-09-10T06:39:38.808Z,19.78
2018-09-10T06:40:42.963Z,19.78
2018-09-10T06:41:47.130Z,19.79
2018-09-10T06:42:51.332Z,19.80
2018-09-10T06:43:55.564Z,19.81
2018-09-10T06:44:59.721Z,19.81
2018-09-10T06:46:03.930Z,19.81
2018-09-10T06:47:08.140Z,19.81
2018-09-10T06:48:12.331Z,19.83
2018-09-10T06:49:16.550Z,19.82
2018-09-10T06:50:21.879Z,19.82
2018-09-10T06:51:26.025Z,19.83
2018-09-10T06:52:30.226Z,19.85
2018-09-10T06:53:34.591Z,19.86
2018-09-10T06:54:38.819Z,19.88
2018-09-10T06:55:42.975Z,19.89
2018-09-10T06:56:47.146Z,19.89
2018-09-10T06:57:51.308Z,19.91
2018-09-10T06:58:55.729Z,19.92
2018-09-10T06:59:59.919Z,19.94
2018-09-10T07:01:04.118Z,19.94
2018-09-10T07:02:08.447Z,19.94
2018-09-10T07:03:12.663Z,19.93
2018-09-10T07:04:16.833Z,19.95
2018-09-10T07:05:21.164Z,19.96
2018-09-10T07:06:25.390Z,19.98
2018-09-10T07:07:29.592Z,20.00
2018-09-10T07:08:33.754Z,20.02
2018-09-10T07:09:38.005Z,20.04
2018-09-10T07:10:42.255Z,20.07
2018-09-10T07:11:46.460Z,20.10
2018-09-10T07:12:50.703Z,20.13
2018-09-10T07:13:54.834Z,20.15
2018-09-10T07:14:59.039Z,20.17
2018-09-10T07:16:03.247Z,20.18
2018-09-10T07:17:07.461Z,20.19
2018-09-10T07:18:11.867Z,20.19
2018-09-10T07:19:16.209Z,20.19
2018-09-10T07:20:20.634Z,20.18
2018-09-10T07:21:24.829Z,20.20
2018-09-10T07:22:29.063Z,20.22
2018-09-10T07:23:33.443Z,20.25
2018-09-10T07:24:37.622Z,20.25
2018-09-10T07:25:41.783Z,20.28
2018-09-10T07:26:46.088Z,20.31
2018-09-10T07:27:50.274Z,20.35
2018-09-10T07:28:54.498Z,20.38
2018-09-10T07:29:58.688Z,20.42
2018-09-10T07:31:02.975Z,20.44
2018-09-10T07:32:07.214Z,20.47
2018-09-10T07:33:11.577Z,20.49
2018-09-10T07:34:15.768Z,20.51
2018-09-10T07:35:19.974Z,20.55
2018-09-10T07:36:24.239Z,20.58
2018-09-10T07:37:28.446Z,20.62
2018-09-10T07:38:32.765Z,20.64
2018-09-10T07:39:36.946Z,20.66
2018-09-10T07:40:41.559Z,20.69
2018-09-10T07:41:45.778Z,20.73
2018-09-10T07:42:50.005Z,20.75
2018-09-10T07:43:54.472Z,20.76
2018-09-10T07:44:58.568Z,20.78
2018-09-10T07:46:02.743Z,20.80
2018-09-10T07:47:06.966Z,20.84
2018-09-10T07:48:11.315Z,20.89
2018-09-10T07:49:15.726Z,20.93
2018-09-10T07:50:20.660Z,20.96
2018-09-10T07:51:24.960Z,20.99
2018-09-10T07:52:29.159Z,21.02
2018-09-10T07:53:33.672Z,21.05
2018-09-10T07:54:37.954Z,21.07
2018-09-10T07:55:42.331Z,21.07
2018-09-10T07:56:46.530Z,21.07
2018-09-10T07:57:50.744Z,21.08
2018-09-10T07:58:55.200Z,21.10
2018-09-10T07:59:59.432Z,21.11
2018-09-10T08:01:03.611Z,21.11
2018-09-10T08:02:07.837Z,21.10
2018-09-10T08:03:12.043Z,21.09
2018-09-10T08:04:16.236Z,21.08
2018-09-10T08:05:20.467Z,21.08
2018-09-10T08:06:24.626Z,21.08
2018-09-10T08:07:28.786Z,21.06
2018-09-10T08:08:32.995Z,21.03
2018-09-10T08:09:37.335Z,21.03
2018-09-10T08:10:41.503Z,21.00
2018-09-10T08:11:45.677Z,20.99
2018-09-10T08:12:49.908Z,20.98
2018-09-10T08:13:54.093Z,20.99
2018-09-10T08:14:58.461Z,20.98
2018-09-10T08:16:02.678Z,20.99
2018-09-10T08:17:06.881Z,20.98
2018-09-10T08:18:11.230Z,21.00
2018-09-10T08:19:15.424Z,21.01
2018-09-10T08:20:20.013Z,21.01
2018-09-10T08:21:24.263Z,21.01
2018-09-10T08:22:28.488Z,21.01
2018-09-10T08:23:32.727Z,21.01
2018-09-10T08:24:36.971Z,21.03
2018-09-10T08:25:41.170Z,21.05
2018-09-10T08:26:45.571Z,21.09
2018-09-10T08:27:49.738Z,21.14
2018-09-10T08:28:54.103Z,21.20
2018-09-10T08:29:58.272Z,21.25
2018-09-10T08:31:02.703Z,21.30
2018-09-10T08:32:07.004Z,21.36
2018-09-10T08:33:11.195Z,21.41
2018-09-10T08:34:15.512Z,21.45
2018-09-10T08:35:19.731Z,21.55
2018-09-10T08:36:23.971Z,21.64
2018-09-10T08:37:28.205Z,21.71
2018-09-10T08:38:32.916Z,21.77
2018-09-10T08:39:37.239Z,21.83
2018-09-10T08:40:41.427Z,21.90
2018-09-10T08:41:45.656Z,21.94
2018-09-10T08:42:49.920Z,21.99
2018-09-10T08:43:54.047Z,22.01
2018-09-10T08:44:58.314Z,22.03
2018-09-10T08:46:02.593Z,22.03
2018-09-10T08:47:06.846Z,22.03
2018-09-10T08:48:11.092Z,22.06
2018-09-10T08:49:15.514Z,22.08
2018-09-10T08:50:19.687Z,22.10
2018-09-10T08:51:23.925Z,22.13
2018-09-10T08:52:28.333Z,22.14
2018-09-10T08:53:32.600Z,22.15
2018-09-10T08:54:37.055Z,22.19
2018-09-10T08:55:41.166Z,22.22
2018-09-10T08:56:45.193Z,22.26
2018-09-10T08:57:49.419Z,22.26
2018-09-10T08:58:53.563Z,22.27
2018-09-10T08:59:57.777Z,22.29
2018-09-10T09:01:01.962Z,22.30
2018-09-10T09:02:06.635Z,22.30
2018-09-10T09:03:10.915Z,22.28
2018-09-10T13:53:23.434Z,24.65
2018-09-10T13:54:27.856Z,24.64
2018-09-10T13:55:31.970Z,24.65
2018-09-10T13:56:36.482Z,24.67
2018-09-10T13:57:40.803Z,24.68
2018-09-10T13:58:45.006Z,24.69
2018-09-10T13:59:49.278Z,24.71
2018-09-10T14:00:53.350Z,24.74
2018-09-10T14:01:57.526Z,24.73
2018-09-10T14:03:01.693Z,24.76
2018-09-10T14:04:05.897Z,24.76
2018-09-10T14:05:10.100Z,24.77
2018-09-10T14:06:14.420Z,24.78
2018-09-10T14:07:18.678Z,24.80
2018-09-10T14:08:22.827Z,24.80
2018-09-10T14:09:27.014Z,24.77
2018-09-10T14:10:31.165Z,24.73
2018-09-10T14:11:35.752Z,24.72
2018-09-10T14:12:39.908Z,24.72
2018-09-10T14:13:44.163Z,24.72
2018-09-10T14:14:48.367Z,24.73
2018-09-10T14:15:52.984Z,24.75
2018-09-10T14:16:57.260Z,24.76
2018-09-10T14:18:01.600Z,24.79
2018-09-10T14:19:05.802Z,24.80
2018-09-10T14:20:09.970Z,24.82
2018-09-10T14:21:14.154Z,24.84
2018-09-10T14:22:18.419Z,24.85
2018-09-10T14:23:22.585Z,24.86
2018-09-10T14:24:27.051Z,24.87
2018-09-10T14:25:31.234Z,24.87
2018-09-10T14:26:35.456Z,24.88
2018-09-10T14:27:39.662Z,24.89
2018-09-10T14:28:43.853Z,24.90
2018-09-10T14:29:48.087Z,24.91
2018-09-10T14:30:52.360Z,24.93
2018-09-10T14:31:56.605Z,24.93
2018-09-10T14:33:00.793Z,24.94
2018-09-10T14:34:05.392Z,24.95
2018-09-10T14:35:09.546Z,24.94
2018-09-10T14:36:13.905Z,24.95
2018-09-10T14:37:18.050Z,24.95
2018-09-10T14:38:22.216Z,24.94
2018-09-10T14:39:26.389Z,24.95
2018-09-10T14:40:30.520Z,24.95
2018-09-10T14:41:34.756Z,24.97
2018-09-10T14:42:38.942Z,25.00
2018-09-10T14:43:43.096Z,25.04
2018-09-10T14:44:47.296Z,25.05
2018-09-10T14:45:51.565Z,25.07
2018-09-10T14:46:55.742Z,25.07
2018-09-10T14:47:59.928Z,25.08
2018-09-10T14:49:04.141Z,25.08
2018-09-10T14:50:08.285Z,25.08
2018-09-10T14:51:12.505Z,25.07
2018-09-10T14:52:16.718Z,25.08
2018-09-10T14:53:20.940Z,25.05
2018-09-10T14:54:25.442Z,25.03
2018-09-10T14:55:29.635Z,25.03
2018-09-10T14:56:33.801Z,25.01
2018-09-10T14:57:37.982Z,25.00
2018-09-10T14:58:42.216Z,25.01
2018-09-10T14:59:46.415Z,24.99
2018-09-10T15:00:50.624Z,24.98
2018-09-10T15:01:54.769Z,24.98
2018-09-10T15:02:59.238Z,24.96
2018-09-10T15:04:03.435Z,24.95
2018-09-10T15:05:07.649Z,24.95
2018-09-10T15:06:11.828Z,24.93
2018-09-10T15:07:16.062Z,24.93
2018-09-10T15:08:20.443Z,24.90
2018-09-10T15:09:24.615Z,24.88
2018-09-10T15:10:28.982Z,24.83
2018-09-10T15:11:33.347Z,24.79
2018-09-10T15:12:37.698Z,24.75
2018-09-10T15:13:41.905Z,24.73
2018-09-10T15:14:46.129Z,24.71
2018-09-10T15:15:50.416Z,24.71
2018-09-10T15:16:54.551Z,24.72
2018-09-10T15:17:58.764Z,24.71
2018-09-10T15:19:03.089Z,24.72
2018-09-10T15:20:07.335Z,24.71
2018-09-10T15:21:11.705Z,24.70
2018-09-10T15:22:15.955Z,24.72
2018-09-10T15:23:20.161Z,24.73
2018-09-10T15:24:24.385Z,24.73
2018-09-10T15:25:28.556Z,24.73
2018-09-10T15:26:32.776Z,24.71
2018-09-10T15:27:37.083Z,24.69
2018-09-10T15:28:41.208Z,24.70
2018-09-10T15:29:45.399Z,24.70
2018-09-10T15:30:49.613Z,24.70
2018-09-10T15:31:53.919Z,24.70
2018-09-10T15:32:58.063Z,24.72
2018-09-10T15:34:02.259Z,24.72
2018-09-10T15:35:06.622Z,24.73
2018-09-10T15:36:10.853Z,24.75
2018-09-10T15:37:15.135Z,24.73
2018-09-10T15:38:19.348Z,24.72
2018-09-10T15:39:23.475Z,24.71
2018-09-10T15:40:27.695Z,24.70
2018-09-10T15:41:31.963Z,24.68
2018-09-10T15:42:36.111Z,24.66
2018-09-10T15:43:40.264Z,24.65
2018-09-10T15:44:44.648Z,24.62
2018-09-10T15:45:48.980Z,24.59
2018-09-10T15:46:53.124Z,24.57
2018-09-10T15:47:57.391Z,24.55
2018-09-10T15:49:01.543Z,24.53
2018-09-10T15:50:06.049Z,24.52
2018-09-10T15:51:10.395Z,24.50
2018-09-10T15:52:14.789Z,24.48
2018-09-10T15:53:18.976Z,24.48
2018-09-10T15:54:30.211Z,24.48
2018-09-10T15:55:34.610Z,24.48
2018-09-10T15:56:38.806Z,24.48
2018-09-10T15:57:42.979Z,24.46
2018-09-10T15:58:47.169Z,24.46
2018-09-10T15:59:51.445Z,24.45
2018-09-10T16:00:55.676Z,24.44
2018-09-10T16:02:00.286Z,24.41
2018-09-10T16:03:04.472Z,24.40
2018-09-10T16:04:08.654Z,24.38
2018-09-10T16:05:12.969Z,24.38
2018-09-10T16:06:17.123Z,24.38
2018-09-10T16:07:21.431Z,24.37
2018-09-10T16:08:25.496Z,24.38
2018-09-10T16:09:29.675Z,24.38
2018-09-10T16:10:33.893Z,24.36
2018-09-10T16:11:38.362Z,24.36
2018-09-10T16:12:42.563Z,24.36
2018-09-10T16:13:46.767Z,24.35
2018-09-10T16:14:51.098Z,24.34
2018-09-10T16:15:55.276Z,24.33
2018-09-10T16:16:59.545Z,24.31
2018-09-10T16:18:03.642Z,24.30
2018-09-10T16:19:07.937Z,24.29
2018-09-10T16:20:12.129Z,24.27
2018-09-10T16:21:16.352Z,24.26
2018-09-10T16:22:20.535Z,24.24
2018-09-10T16:23:24.719Z,24.22
2018-09-10T16:24:28.881Z,24.20
2018-09-10T16:25:33.067Z,24.18
2018-09-10T16:26:37.227Z,24.17
2018-09-10T16:27:41.584Z,24.16
2018-09-10T16:28:45.993Z,24.15
2018-09-10T16:29:50.199Z,24.16
2018-09-10T16:30:54.351Z,24.16
2018-09-10T16:31:58.608Z,24.15
2018-09-10T16:33:02.910Z,24.15
2018-09-10T16:34:07.112Z,24.13
2018-09-10T16:35:11.327Z,24.13
2018-09-10T16:36:15.441Z,24.13
2018-09-10T16:37:19.635Z,24.11
2018-09-10T16:38:23.843Z,24.11
2018-09-10T16:39:28.352Z,24.12
2018-09-10T16:40:32.518Z,24.11
2018-09-10T16:41:36.667Z,24.09
2018-09-10T16:42:41.072Z,24.08
2018-09-10T16:43:45.241Z,24.07
2018-09-10T16:44:49.685Z,24.07
2018-09-10T16:45:53.849Z,24.05
2018-09-10T16:46:58.096Z,24.04
2018-09-10T16:48:02.230Z,24.05
2018-09-10T16:49:06.711Z,24.04
2018-09-10T16:50:10.848Z,24.04
2018-09-10T16:51:15.120Z,24.04
2018-09-10T16:52:19.287Z,24.03
2018-09-10T16:53:23.443Z,24.04
2018-09-10T16:54:27.667Z,24.04
2018-09-10T16:55:32.275Z,24.04
2018-09-10T16:56:36.867Z,24.03
2018-09-10T16:57:41.030Z,24.03
2018-09-10T16:58:45.273Z,24.02
2018-09-10T16:59:49.415Z,24.01
2018-09-10T17:00:54.710Z,24.00
2018-09-10T17:01:58.862Z,23.99
2018-09-10T17:03:03.059Z,23.97
2018-09-10T17:04:07.194Z,23.96
2018-09-10T17:05:11.411Z,23.94
2018-09-10T17:06:15.821Z,23.93
2018-09-10T17:07:20.144Z,23.91
2018-09-10T17:08:24.306Z,23.90
2018-09-10T17:09:28.554Z,23.88
2018-09-10T17:10:32.802Z,23.88
2018-09-10T17:11:37.023Z,23.87
2018-09-10T17:12:41.239Z,23.86
2018-09-10T17:13:45.385Z,23.85
2018-09-10T17:14:49.617Z,23.83
2018-09-10T17:15:53.747Z,23.81
2018-09-10T17:16:57.989Z,23.78
2018-09-10T17:18:02.195Z,23.77
2018-09-10T17:19:06.371Z,23.74
2018-09-10T17:20:10.606Z,23.72
2018-09-10T17:21:14.810Z,23.70
2018-09-10T17:22:19.496Z,23.70
2018-09-10T17:23:23.609Z,23.69
2018-09-10T17:24:27.777Z,23.68
2018-09-10T17:25:31.971Z,23.68
2018-09-10T17:26:36.349Z,23.67
2018-09-10T17:27:40.574Z,23.67
2018-09-10T17:28:45.522Z,23.66
2018-09-10T17:29:49.730Z,23.65
2018-09-10T17:30:53.902Z,23.63
2018-09-10T17:31:58.262Z,23.62
2018-09-10T17:33:02.589Z,23.58
2018-09-10T17:34:06.807Z,23.58
2018-09-10T17:35:10.973Z,23.56
2018-09-10T17:36:15.271Z,23.54
2018-09-10T17:37:19.526Z,23.52
2018-09-10T17:38:23.732Z,23.50
2018-09-10T17:39:27.879Z,23.48
2018-09-10T17:40:32.244Z,23.44
2018-09-10T17:41:36.536Z,23.43
2018-09-10T17:42:41.002Z,23.41
2018-09-10T17:43:45.166Z,23.40
2018-09-10T17:44:49.514Z,23.38
2018-09-10T17:45:53.678Z,23.36
2018-09-10T17:46:58.156Z,23.35
2018-09-10T17:48:02.383Z,23.33
2018-09-10T17:49:06.616Z,23.33
2018-09-10T17:50:10.807Z,23.32
2018-09-10T17:51:14.953Z,23.32
2018-09-10T17:52:19.151Z,23.30
2018-09-10T17:53:23.443Z,23.30
2018-09-10T17:54:27.528Z,23.31
2018-09-10T17:55:31.800Z,23.30
2018-09-10T17:56:36.266Z,23.32
2018-09-10T17:57:40.444Z,23.31
2018-09-10T17:58:44.653Z,23.34
2018-09-10T17:59:48.858Z,23.34
2018-09-10T18:00:53.078Z,23.33
2018-09-10T18:01:57.392Z,23.32
2018-09-10T18:03:01.579Z,23.31
2018-09-10T18:04:05.774Z,23.32
2018-09-10T18:05:09.985Z,23.30
2018-09-10T18:06:14.169Z,23.30
2018-09-10T18:07:18.395Z,23.30
2018-09-10T18:08:22.544Z,23.30
2018-09-10T18:09:26.700Z,23.28
2018-09-10T18:10:30.915Z,23.28
2018-09-10T18:11:35.319Z,23.28
2018-09-10T18:12:39.523Z,23.28
2018-09-10T18:13:43.729Z,23.27
2018-09-10T18:14:47.850Z,23.26
2018-09-10T18:15:53.004Z,23.25
2018-09-10T18:16:57.163Z,23.25
2018-09-10T18:18:01.935Z,23.25
2018-09-10T18:19:06.152Z,23.24
2018-09-10T18:20:10.395Z,23.24
2018-09-10T18:21:14.600Z,23.24
2018-09-10T18:22:18.777Z,23.25
2018-09-10T18:23:22.962Z,23.23
2018-09-10T18:24:27.162Z,23.22
2018-09-10T18:25:31.370Z,23.22
2018-09-10T18:26:35.546Z,23.20
2018-09-10T18:27:39.710Z,23.20
2018-09-10T18:28:43.915Z,23.19
2018-09-10T18:29:48.126Z,23.18
2018-09-10T18:30:52.283Z,23.17
2018-09-10T18:31:56.489Z,23.17
2018-09-10T18:33:01.034Z,23.16
2018-09-10T18:34:05.199Z,23.15
2018-09-10T18:35:09.471Z,23.14
2018-09-10T18:36:13.643Z,23.11
2018-09-10T18:37:17.876Z,23.10